Time;durP1;ratioP1;P1;durP2;ratioP2;P2;SDS_P1;SDS_P2;PMS_P1;PMS_P2;Temp;Humidity;BMP_temperature;BMP_pressure;BME280_temperature;BME280_humidity;BME280_pressure;Samples;Min_cycle;Max_cycle;Signal;HPM_P1;HPM_P2
2022/07/15 00:01:05;;;;;;;4.43;1.30;;;13.30;30.70;;;;;;5011724;28;20202;-63
2022/07/15 00:03:31;;;;;;;9.55;1.63;;;13.40;36.90;;;;;;5021181;28;20206;-63
2022/07/15 00:06:00;;;;;;;4.43;1.30;;;15.00;33.50;;;;;;5011013;28;20213;-63
2022/07/15 00:08:28;;;;;;;5.45;1.10;;;13.60;37.90;;;;;;5019579;28;20221;-61
2022/07/15 00:10:55;;;;;;;5.28;1.58;;;13.40;30.60;;;;;;4997972;28;20348;-63
2022/07/15 00:13:24;;;;;;;8.57;1.70;;;13.30;37.90;;;;;;5000799;28;20206;-62
2022/07/15 00:15:51;;;;;;;7.65;1.67;;;13.50;33.10;;;;;;5013468;28;20197;-62
2022/07/15 00:18:18;;;;;;;3.40;1.60;;;13.50;34.60;;;;;;5022821;28;20217;-62
2022/07/15 00:20:45;;;;;;;5.68;1.58;;;13.60;34.80;;;;;;5008184;28;20229;-63
2022/07/15 00:23:13;;;;;;;3.90;1.42;;;13.80;36.20;;;;;;5023403;28;20201;-62
2022/07/15 00:25:40;;;;;;;2.55;1.17;;;13.50;34.60;;;;;;4994876;28;21258;-62
2022/07/15 00:28:08;;;;;;;6.93;1.35;;;13.60;30.00;;;;;;5009314;28;20236;-62
2022/07/15 00:30:37;;;;;;;11.10;1.48;;;13.50;26.80;;;;;;5005658;28;20211;-62
2022/07/15 00:33:05;;;;;;;4.50;1.77;;;13.50;28.60;;;;;;5013514;28;20312;-63
2022/07/15 00:35:33;;;;;;;5.85;1.20;;;13.30;34.60;;;;;;5020431;28;20198;-62
2022/07/15 00:38:01;;;;;;;4.25;1.23;;;13.50;30.60;;;;;;5009779;28;20668;-62
2022/07/15 00:40:29;;;;;;;5.30;1.73;;;13.40;33.30;;;;;;5019693;28;20224;-62
2022/07/15 00:42:57;;;;;;;11.75;1.63;;;13.80;40.10;;;;;;4997441;28;20692;-62
2022/07/15 00:45:25;;;;;;;3.53;1.63;;;13.40;35.40;;;;;;4993589;28;20212;-62
2022/07/15 00:47:54;;;;;;;7.45;1.55;;;13.50;34.70;;;;;;5007472;28;20723;-62
2022/07/15 00:50:23;;;;;;;3.78;1.75;;;13.40;32.70;;;;;;5022357;28;20211;-63
2022/07/15 00:52:54;;;;;;;4.93;1.48;;;13.40;28.40;;;;;;5007366;28;20580;-63
2022/07/15 00:55:22;;;;;;;6.43;1.50;;;13.30;30.50;;;;;;5012456;28;20518;-62
2022/07/15 00:57:52;;;;;;;4.13;1.80;;;13.60;40.20;;;;;;4989935;28;20562;-62
2022/07/15 01:00:19;;;;;;;1.80;1.20;;;13.40;35.80;;;;;;4983931;28;20721;-62
2022/07/15 01:02:50;;;;;;;7.10;1.52;;;13.40;36.00;;;;;;5018870;28;20304;-62
2022/07/15 01:05:19;;;;;;;4.65;1.73;;;13.40;37.60;;;;;;5014549;28;20386;-62
2022/07/15 01:07:46;;;;;;;6.45;1.55;;;13.40;37.90;;;;;;5026308;28;20214;-62
2022/07/15 01:10:13;;;;;;;4.05;1.30;;;13.40;36.10;;;;;;5009433;28;20205;-62
2022/07/15 01:12:41;;;;;;;3.38;1.50;;;13.40;27.70;;;;;;5017733;28;20214;-62
2022/07/15 01:15:11;;;;;;;4.05;2.60;;;13.30;27.80;;;;;;4976608;28;20202;-62
2022/07/15 01:17:38;;;;;;;10.32;1.73;;;13.40;16.70;;;;;;5008817;28;20344;-62
2022/07/15 01:20:07;;;;;;;6.32;1.50;;;13.20;18.10;;;;;;5004570;28;20352;-63
2022/07/15 01:22:35;;;;;;;5.45;1.50;;;13.30;13.80;;;;;;5021236;28;20202;-62
2022/07/15 01:25:02;;;;;;;4.53;1.38;;;;;;;;;;5003694;28;20244;-62
2022/07/15 01:27:29;;;;;;;3.03;1.20;;;13.30;4.70;;;;;;5003477;28;20204;-62
2022/07/15 01:29:56;;;;;;;8.15;1.50;;;13.30;6.00;;;;;;4985812;28;20238;-62
2022/07/15 01:32:23;;;;;;;2.55;1.20;;;13.10;16.00;;;;;;5002697;28;20319;-63
2022/07/15 01:34:49;;;;;;;6.78;1.75;;;13.40;12.70;;;;;;5002111;28;20205;-62
2022/07/15 01:37:16;;;;;;;9.75;1.45;;;13.10;20.70;;;;;;5017153;28;20517;-62
2022/07/15 01:39:45;;;;;;;11.38;1.92;;;13.40;17.50;;;;;;5019677;28;20316;-63
2022/07/15 01:42:12;;;;;;;7.20;1.17;;;13.50;24.60;;;;;;5000965;28;20201;-62
2022/07/15 01:44:38;;;;;;;4.10;1.40;;;13.60;32.90;;;;;;4996679;28;20507;-62
2022/07/15 01:47:05;;;;;;;7.50;1.60;;;13.50;28.80;;;;;;4994571;28;20222;-62
2022/07/15 01:49:32;;;;;;;5.35;1.75;;;13.60;32.80;;;;;;5013666;28;20632;-62
2022/07/15 01:52:01;;;;;;;6.35;1.50;;;13.50;28.50;;;;;;5021852;28;20288;-62
2022/07/15 01:54:29;;;;;;;8.70;1.50;;;13.60;29.40;;;;;;5022532;28;20201;-63
2022/07/15 01:56:58;;;;;;;7.82;1.58;;;13.60;30.00;;;;;;5002020;28;20703;-62
2022/07/15 01:59:26;;;;;;;9.70;1.55;;;13.60;27.40;;;;;;4988447;28;21221;-62
2022/07/15 02:01:54;;;;;;;5.60;1.27;;;13.70;33.20;;;;;;5005465;28;20202;-62
2022/07/15 02:04:22;;;;;;;3.22;1.20;;;13.60;29.00;;;;;;4999409;28;20216;-62
2022/07/15 02:06:49;;;;;;;8.32;2.13;;;13.80;39.10;;;;;;5018546;28;20340;-62
2022/07/15 02:09:16;;;;;;;2.47;1.30;;;13.70;34.90;;;;;;5022646;28;20749;-62
2022/07/15 02:11:44;;;;;;;4.53;1.42;;;13.70;34.10;;;;;;5008766;28;20215;-62
2022/07/15 02:14:12;;;;;;;9.73;1.73;;;13.40;41.70;;;;;;5016330;28;20205;-62
2022/07/15 02:16:39;;;;;;;9.35;2.03;;;13.70;35.70;;;;;;4994172;28;20419;-62
2022/07/15 02:19:08;;;;;;;5.90;1.10;;;13.80;35.30;;;;;;5013732;28;20206;-62
2022/07/15 02:21:35;;;;;;;2.78;1.45;;;13.70;35.40;;;;;;5009602;28;20533;-62
2022/07/15 02:24:02;;;;;;;11.38;1.88;;;13.80;32.30;;;;;;5021849;28;20420;-62
2022/07/15 02:26:29;;;;;;;4.38;1.27;;;13.80;36.80;;;;;;5005267;28;20198;-62
2022/07/15 02:28:55;;;;;;;8.68;1.73;;;13.80;30.90;;;;;;5022844;28;20222;-62
2022/07/15 02:31:24;;;;;;;3.35;0.95;;;13.80;37.10;;;;;;4982291;28;20210;-62
2022/07/15 02:33:51;;;;;;;6.65;1.90;;;15.40;33.90;;;;;;5007139;28;20198;-62
2022/07/15 02:36:18;;;;;;;5.82;1.23;;;;;;;;;;5021172;28;20285;-63
2022/07/15 02:38:46;;;;;;;5.50;1.50;;;14.30;38.60;;;;;;5023378;28;20229;-63
2022/07/15 02:41:13;;;;;;;9.07;1.48;;;13.80;34.50;;;;;;5024685;28;20225;-63
2022/07/15 02:43:41;;;;;;;5.88;1.17;;;13.80;31.70;;;;;;4997665;28;20215;-62
2022/07/15 02:46:08;;;;;;;3.80;1.55;;;13.60;33.20;;;;;;5000287;28;20213;-62
2022/07/15 02:48:37;;;;;;;5.47;1.23;;;10.70;30.00;;;;;;4999603;28;20286;-62
2022/07/15 02:51:04;;;;;;;3.85;1.25;;;13.80;26.60;;;;;;5026271;28;20204;-62
2022/07/15 02:53:31;;;;;;;5.65;1.45;;;13.80;25.20;;;;;;5011366;28;20228;-63
2022/07/15 02:55:59;;;;;;;8.43;1.70;;;13.80;28.20;;;;;;5025925;28;20308;-62
2022/07/15 02:58:26;;;;;;;5.50;1.42;;;13.80;25.60;;;;;;4993354;28;20780;-64
2022/07/15 03:00:53;;;;;;;4.65;1.55;;;;;;;;;;5002012;28;20575;-63
2022/07/15 03:03:20;;;;;;;3.05;1.33;;;13.80;31.80;;;;;;5007410;28;20206;-62
2022/07/15 03:05:49;;;;;;;4.57;1.08;;;10.60;32.50;;;;;;5014082;28;20215;-62
2022/07/15 03:08:16;;;;;;;10.93;1.80;;;13.70;30.30;;;;;;5014861;28;20432;-62
2022/07/15 03:10:44;;;;;;;4.00;1.30;;;13.70;29.90;;;;;;5022983;28;20494;-62
2022/07/15 03:13:10;;;;;;;4.70;1.05;;;12.30;31.00;;;;;;5007382;28;20325;-62
2022/07/15 03:15:37;;;;;;;3.30;1.20;;;13.70;31.00;;;;;;5022218;28;20790;-62
2022/07/15 03:18:04;;;;;;;6.10;1.42;;;;;;;;;;4994042;28;20202;-62
2022/07/15 03:20:31;;;;;;;3.78;1.15;;;13.60;28.50;;;;;;5006699;28;20229;-62
2022/07/15 03:23:00;;;;;;;7.30;1.20;;;13.60;30.80;;;;;;5013060;28;20217;-62
2022/07/15 03:25:26;;;;;;;4.00;1.30;;;13.50;30.40;;;;;;5012264;28;20234;-62
2022/07/15 03:27:53;;;;;;;6.65;1.08;;;13.50;35.00;;;;;;5024114;28;20403;-64
2022/07/15 03:30:22;;;;;;;6.00;1.30;;;13.40;41.80;;;;;;5025004;28;20198;-62
2022/07/15 03:32:49;;;;;;;6.57;1.48;;;13.60;44.80;;;;;;4996809;28;20263;-62
2022/07/15 03:35:15;;;;;;;5.53;1.35;;;13.30;48.50;;;;;;5014263;28;20204;-62
2022/07/15 03:37:42;;;;;;;2.45;1.38;;;13.40;45.60;;;;;;5023014;28;20202;-62
2022/07/15 03:40:12;;;;;;;4.53;1.38;;;13.30;43.30;;;;;;4998856;28;20205;-62
2022/07/15 03:42:39;;;;;;;9.32;1.70;;;13.30;48.90;;;;;;5021937;28;20703;-63
2022/07/15 03:45:06;;;;;;;5.43;1.38;;;13.30;45.10;;;;;;5013578;28;20205;-62
2022/07/15 03:47:33;;;;;;;6.90;1.50;;;13.10;54.00;;;;;;4983491;28;20212;-62
2022/07/15 03:50:00;;;;;;;6.68;1.33;;;13.20;55.70;;;;;;5016273;28;23300;-62
2022/07/15 03:52:27;;;;;;;4.32;1.23;;;11.50;55.80;;;;;;4993151;28;20311;-62
2022/07/15 03:54:54;;;;;;;9.07;1.67;;;13.30;53.70;;;;;;5003465;28;20221;-62
2022/07/15 03:57:24;;;;;;;4.68;1.55;;;13.40;59.30;;;;;;5011122;28;21201;-61
2022/07/15 03:59:51;;;;;;;3.10;1.20;;;11.40;59.30;;;;;;5004278;28;20677;-62
2022/07/15 04:02:19;;;;;;;5.18;1.45;;;13.90;61.50;;;;;;4974890;28;20228;-62
2022/07/15 04:04:45;;;;;;;4.30;1.67;;;13.80;59.80;;;;;;5023188;28;20259;-62
2022/07/15 04:07:12;;;;;;;6.05;1.38;;;13.60;62.50;;;;;;4997555;28;20206;-62
2022/07/15 04:09:39;;;;;;;7.40;1.48;;;13.50;55.50;;;;;;5007930;28;20229;-62
2022/07/15 04:12:06;;;;;;;4.32;1.25;;;13.30;61.70;;;;;;5026546;28;20197;-61
2022/07/15 04:14:34;;;;;;;2.35;1.30;;;14.40;58.30;;;;;;5022975;28;20915;-61
2022/07/15 04:17:02;;;;;;;3.08;1.48;;;13.40;52.60;;;;;;5003715;28;20608;-62
2022/07/15 04:19:29;;;;;;;9.98;1.63;;;13.20;58.10;;;;;;4978862;28;23375;-61
2022/07/15 04:21:56;;;;;;;5.07;1.60;;;13.50;63.80;;;;;;4992376;28;20769;-62
2022/07/15 04:24:23;;;;;;;5.03;1.30;;;13.50;57.60;;;;;;5003521;28;20229;-62
2022/07/15 04:26:50;;;;;;;3.33;1.20;;;13.80;73.30;;;;;;5007718;28;20629;-62
2022/07/15 04:29:17;;;;;;;5.93;1.60;;;13.60;71.40;;;;;;5019086;28;20223;-62
2022/07/15 04:31:45;;;;;;;5.30;1.23;;;13.40;67.40;;;;;;5008657;28;20213;-62
2022/07/15 04:34:12;;;;;;;4.78;1.30;;;13.60;76.10;;;;;;4982441;28;20300;-63
2022/07/15 04:36:39;;;;;;;6.15;1.35;;;13.50;78.50;;;;;;5010693;28;20275;-62
2022/07/15 04:39:06;;;;;;;3.40;1.45;;;13.40;69.20;;;;;;5015433;28;20233;-61
2022/07/15 04:41:33;;;;;;;3.25;1.30;;;;;;;;;;5012284;28;20207;-62
2022/07/15 04:44:00;;;;;;;3.97;1.10;;;14.80;69.20;;;;;;5022433;28;20197;-61
2022/07/15 04:46:27;;;;;;;3.50;1.02;;;13.50;66.70;;;;;;5020757;28;20778;-62
2022/07/15 04:51:39;;;;;;;5.13;1.40;;;14.00;72.80;;;;;;5017988;28;20748;-62
2022/07/15 04:54:06;;;;;;;3.63;0.80;;;13.60;73.90;;;;;;5015575;28;20292;-63
2022/07/15 04:56:33;;;;;;;6.03;1.13;;;13.50;69.60;;;;;;4992476;28;20251;-61
2022/07/15 04:58:59;;;;;;;5.78;1.20;;;13.70;75.30;;;;;;5017939;28;21372;-63
2022/07/15 05:01:26;;;;;;;8.20;1.35;;;13.70;71.30;;;;;;5003726;28;20213;-62
2022/07/15 05:03:54;;;;;;;3.65;1.45;;;12.40;80.90;;;;;;4979065;28;20214;-63
2022/07/15 05:06:21;;;;;;;2.70;1.00;;;13.80;75.30;;;;;;5025357;28;20580;-62
2022/07/15 05:08:48;;;;;;;5.13;1.27;;;13.70;81.10;;;;;;4990593;28;20909;-63
2022/07/15 05:11:15;;;;;;;7.68;1.70;;;13.90;76.10;;;;;;5005420;28;20213;-63
2022/07/15 05:13:42;;;;;;;3.50;1.38;;;14.00;78.30;;;;;;5014236;28;20198;-63
2022/07/15 05:16:09;;;;;;;3.17;1.38;;;14.10;74.20;;;;;;5014305;28;20194;-63
2022/07/15 05:18:37;;;;;;;5.90;1.23;;;14.10;69.30;;;;;;5006463;28;20222;-63
2022/07/15 05:21:05;;;;;;;4.15;0.93;;;13.70;65.90;;;;;;4995009;28;20206;-64
2022/07/15 05:23:32;;;;;;;4.63;1.20;;;13.90;60.80;;;;;;5008644;28;20223;-63
2022/07/15 05:25:59;;;;;;;6.38;1.25;;;14.00;58.20;;;;;;5004055;28;20845;-64
2022/07/15 05:28:27;;;;;;;3.20;1.67;;;14.00;56.10;;;;;;5023021;28;20190;-62
2022/07/15 05:30:54;;;;;;;4.70;1.05;;;14.50;60.40;;;;;;5023230;28;20208;-64
2022/07/15 05:33:21;;;;;;;4.00;1.65;;;14.20;56.10;;;;;;5008558;28;20724;-64
2022/07/15 05:35:48;;;;;;;4.93;1.08;;;14.00;53.80;;;;;;4992849;28;20822;-65
2022/07/15 05:38:16;;;;;;;4.47;0.93;;;13.90;52.20;;;;;;5015328;28;20856;-65
2022/07/15 05:40:43;;;;;;;2.97;1.27;;;14.20;49.40;;;;;;5010741;28;20206;-65
2022/07/15 05:43:10;;;;;;;2.15;0.93;;;14.10;45.10;;;;;;5016771;28;20768;-64
2022/07/15 05:45:37;;;;;;;6.82;1.48;;;14.30;45.10;;;;;;5022051;28;20209;-64
2022/07/15 05:48:04;;;;;;;7.95;1.33;;;14.20;40.30;;;;;;5023015;28;20932;-64
2022/07/15 05:50:31;;;;;;;4.88;1.38;;;14.20;37.40;;;;;;5004461;28;20229;-65
2022/07/15 05:52:58;;;;;;;2.75;1.10;;;14.20;32.50;;;;;;4976290;28;20309;-64
2022/07/15 05:55:26;;;;;;;2.08;0.93;;;14.30;28.20;;;;;;5011711;28;20293;-64
2022/07/15 05:57:53;;;;;;;6.07;1.30;;;14.60;30.10;;;;;;5009437;28;20216;-63
2022/07/15 06:00:20;;;;;;;2.65;0.85;;;14.40;28.10;;;;;;5013446;28;20210;-64
2022/07/15 06:02:47;;;;;;;2.75;1.10;;;14.50;24.80;;;;;;5018374;28;20696;-63
2022/07/15 06:05:14;;;;;;;2.38;0.93;;;13.30;19.90;;;;;;5008992;28;20213;-64
2022/07/15 06:07:41;;;;;;;2.17;0.70;;;14.40;11.40;;;;;;4983585;28;22732;-64
2022/07/15 06:10:09;;;;;;;4.43;0.90;;;12.70;5.50;;;;;;5009632;28;20240;-64
2022/07/15 06:12:38;;;;;;;8.35;1.20;;;14.40;1.00;;;;;;5018084;28;20198;-64
2022/07/15 06:15:05;;;;;;;4.53;1.08;;;;;;;;;;4993839;28;20623;-64
2022/07/15 06:17:33;;;;;;;2.90;1.05;;;14.60;1.00;;;;;;5020470;28;20218;-64
2022/07/15 06:20:00;;;;;;;2.15;0.80;;;;;;;;;;5009581;28;20368;-64
2022/07/15 06:22:27;;;;;;;4.68;1.10;;;14.60;1.00;;;;;;4985999;28;20225;-63
2022/07/15 06:24:54;;;;;;;1.85;0.88;;;;;;;;;;5007350;28;21007;-64
2022/07/15 06:27:22;;;;;;;2.28;1.17;;;14.50;1.00;;;;;;5009830;28;20217;-63
2022/07/15 06:29:50;;;;;;;4.00;0.82;;;14.60;1.00;;;;;;5009186;28;20229;-63
2022/07/15 06:32:17;;;;;;;1.95;0.75;;;14.70;1.00;;;;;;5020192;28;20572;-63
2022/07/15 06:34:44;;;;;;;4.45;1.30;;;14.60;1.00;;;;;;5011705;28;20225;-64
2022/07/15 06:37:11;;;;;;;3.38;0.95;;;14.70;1.00;;;;;;4998342;28;20222;-63
2022/07/15 06:39:38;;;;;;;3.03;0.90;;;15.50;1.00;;;;;;4996503;28;20211;-64
2022/07/15 06:42:05;;;;;;;4.43;1.13;;;14.70;1.00;;;;;;5008289;28;20704;-64
2022/07/15 06:44:32;;;;;;;2.53;1.00;;;14.90;1.00;;;;;;4997241;28;20247;-63
2022/07/15 06:47:02;;;;;;;4.40;1.10;;;14.80;1.00;;;;;;5011793;28;20233;-63
2022/07/15 06:49:29;;;;;;;2.13;0.98;;;14.50;1.00;;;;;;5022625;28;20607;-64
2022/07/15 06:51:56;;;;;;;2.13;1.00;;;14.80;1.00;;;;;;5010739;28;20222;-63
2022/07/15 06:54:23;;;;;;;1.58;0.90;;;14.80;1.00;;;;;;4989872;28;20213;-63
2022/07/15 06:56:50;;;;;;;9.35;1.30;;;14.80;1.00;;;;;;5015049;28;20669;-64
2022/07/15 06:59:17;;;;;;;3.20;0.70;;;15.40;1.00;;;;;;5000628;28;20206;-64
2022/07/15 07:01:44;;;;;;;2.08;0.88;;;14.90;1.00;;;;;;5010110;28;20222;-64
2022/07/15 07:04:12;;;;;;;4.25;1.08;;;14.70;1.00;;;;;;5001179;28;20221;-63
2022/07/15 07:06:39;;;;;;;2.10;0.65;;;14.90;1.00;;;;;;5009633;28;20205;-63
2022/07/15 07:09:06;;;;;;;4.63;0.95;;;15.00;1.00;;;;;;4989716;28;20226;-63
2022/07/15 07:11:33;;;;;;;3.03;0.90;;;14.60;1.00;;;;;;5015623;28;20197;-62
2022/07/15 07:14:00;;;;;;;2.65;0.77;;;14.40;1.00;;;;;;5006905;28;20201;-62
2022/07/15 07:16:28;;;;;;;3.55;0.88;;;14.50;1.00;;;;;;4996493;28;20226;-62
2022/07/15 07:18:55;;;;;;;7.63;1.08;;;;;;;;;;5018061;28;20618;-61
2022/07/15 07:21:23;;;;;;;6.03;1.17;;;14.50;1.00;;;;;;5004960;28;20236;-62
2022/07/15 07:23:50;;;;;;;3.10;0.98;;;14.40;1.00;;;;;;4990302;28;20210;-61
2022/07/15 07:26:17;;;;;;;2.90;1.17;;;14.70;1.00;;;;;;4998783;28;20988;-61
2022/07/15 07:28:45;;;;;;;1.65;0.93;;;14.60;1.00;;;;;;5016298;28;21006;-61
2022/07/15 07:31:13;;;;;;;3.97;1.63;;;14.80;1.00;;;;;;4998670;28;20233;-62
2022/07/15 07:33:41;;;;;;;1.45;0.88;;;14.80;1.00;;;;;;5002952;28;20202;-62
2022/07/15 07:36:09;;;;;;;1.90;0.77;;;14.90;1.00;;;;;;5005821;28;20236;-63
2022/07/15 07:38:38;;;;;;;1.98;0.80;;;15.00;1.00;;;;;;4984414;28;20206;-63
2022/07/15 07:41:06;;;;;;;3.33;1.00;;;15.00;1.00;;;;;;5018494;28;20205;-63
2022/07/15 07:43:34;;;;;;;2.63;0.82;;;15.30;1.00;;;;;;5014990;28;20208;-64
2022/07/15 07:46:02;;;;;;;6.55;1.20;;;15.20;1.00;;;;;;5005429;28;20225;-63
2022/07/15 07:48:30;;;;;;;4.15;0.80;;;18.50;1.00;;;;;;5001967;28;20992;-64
2022/07/15 07:50:57;;;;;;;4.65;1.20;;;15.30;1.00;;;;;;5003834;28;20734;-65
2022/07/15 07:53:24;;;;;;;3.20;0.90;;;15.20;1.00;;;;;;4977691;28;20726;-63
2022/07/15 07:55:53;;;;;;;2.85;1.38;;;15.40;1.00;;;;;;5010942;28;20209;-63
2022/07/15 07:58:20;;;;;;;3.53;0.95;;;15.40;1.00;;;;;;5007757;28;20198;-64
2022/07/15 08:00:47;;;;;;;4.10;1.33;;;16.10;1.00;;;;;;5008049;28;20205;-63
2022/07/15 08:03:15;;;;;;;6.30;1.83;;;15.50;1.00;;;;;;5014468;28;20206;-63
2022/07/15 08:05:42;;;;;;;4.95;1.38;;;15.50;1.00;;;;;;5019764;28;20292;-63
2022/07/15 08:08:11;;;;;;;5.90;1.20;;;11.80;1.00;;;;;;5013180;28;20213;-63
2022/07/15 08:10:39;;;;;;;1.90;0.60;;;15.60;1.00;;;;;;4996621;28;20233;-62
2022/07/15 08:13:07;;;;;;;1.58;0.80;;;15.90;1.00;;;;;;5018369;28;20292;-63
2022/07/15 08:15:35;;;;;;;1.92;0.90;;;16.10;1.00;;;;;;4993380;28;20891;-63
2022/07/15 08:18:02;;;;;;;4.40;0.90;;;16.00;1.00;;;;;;5018759;28;21445;-63
2022/07/15 08:20:30;;;;;;;1.52;0.90;;;17.40;1.00;;;;;;4997804;28;20600;-63
2022/07/15 08:22:59;;;;;;;3.38;1.27;;;16.10;1.00;;;;;;5002314;28;20224;-63
2022/07/15 08:25:27;;;;;;;3.30;0.90;;;16.20;1.00;;;;;;4974468;28;20265;-63
2022/07/15 08:27:54;;;;;;;4.50;1.10;;;16.30;1.00;;;;;;5008770;28;20304;-63
2022/07/15 08:30:23;;;;;;;2.30;1.02;;;16.40;1.00;;;;;;5008799;28;20224;-63
2022/07/15 08:32:50;;;;;;;4.10;1.23;;;16.40;1.00;;;;;;4979815;28;20217;-64
2022/07/15 08:35:18;;;;;;;4.70;0.95;;;16.40;1.00;;;;;;5003365;28;20296;-64
2022/07/15 08:37:45;;;;;;;9.30;0.98;;;16.40;1.00;;;;;;5004553;28;20305;-63
2022/07/15 08:40:14;;;;;;;4.03;1.05;;;;;;;;;;4984658;28;20221;-65
2022/07/15 08:42:43;;;;;;;4.20;0.88;;;16.40;1.00;;;;;;5016826;28;20629;-64
2022/07/15 08:45:11;;;;;;;3.30;0.90;;;16.50;1.00;;;;;;5019800;28;20289;-63
2022/07/15 08:47:42;;;;;;;2.13;1.00;;;16.50;99.90;;;;;;5007523;28;20226;-64
2022/07/15 08:50:12;;;;;;;1.20;1.10;;;16.40;99.90;;;;;;5008022;28;20764;-64
2022/07/15 08:52:39;;;;;;;5.57;0.95;;;;;;;;;;5019212;28;20211;-62
2022/07/15 08:55:07;;;;;;;0.50;0.50;;;16.40;99.90;;;;;;4988019;28;20214;-62
2022/07/15 08:57:35;;;;;;;4.90;1.17;;;16.30;99.90;;;;;;5010088;28;20220;-63
2022/07/15 09:00:01;;;;;;;0.73;0.68;;;16.30;99.90;;;;;;5021739;28;20229;-62
2022/07/15 09:02:29;;;;;;;1.10;0.70;;;16.40;97.40;;;;;;4999269;28;20415;-62
2022/07/15 09:05:27;;;;;;;2.60;0.82;;;16.40;99.90;;;;;;5016867;28;20764;-62
2022/07/15 09:08:01;;;;;;;2.38;0.73;;;16.50;99.90;;;;;;5025794;28;20251;-62
2022/07/15 09:10:47;;;;;;;2.92;0.82;;;16.50;62.00;;;;;;4993191;28;20442;-63
2022/07/15 09:13:27;;;;;;;0.50;0.45;;;16.50;1.00;;;;;;5004982;28;20229;-62
2022/07/15 09:15:55;;;;;;;2.15;0.82;;;16.50;1.00;;;;;;5018098;28;20700;-62
2022/07/15 09:18:24;;;;;;;2.17;0.63;;;16.40;1.00;;;;;;5003504;28;21142;-63
2022/07/15 09:20:52;;;;;;;3.15;0.80;;;16.40;99.90;;;;;;5023520;28;20216;-63
2022/07/15 09:23:29;;;;;;;3.03;1.00;;;16.40;99.90;;;;;;5008854;28;20222;-62
2022/07/15 09:25:56;;;;;;;3.60;0.70;;;16.30;99.90;;;;;;4994935;28;20350;-64
2022/07/15 09:28:37;;;;;;;4.38;1.02;;;16.30;99.90;;;;;;4995283;28;20988;-64
2022/07/15 09:33:51;;;;;;;1.85;0.60;;;15.90;99.90;;;;;;5008303;28;20784;-62
2022/07/15 09:36:22;;;;;;;3.50;0.88;;;15.40;1.00;;;;;;5022941;28;20217;-62
2022/07/15 09:38:52;;;;;;;2.25;1.00;;;15.60;1.00;;;;;;5010374;28;20975;-61
2022/07/15 09:41:28;;;;;;;3.25;0.73;;;15.20;1.00;;;;;;4998049;28;20221;-62
2022/07/15 09:43:58;;;;;;;2.15;0.82;;;12.20;35.10;;;;;;5008225;28;20229;-61
2022/07/15 09:46:26;;;;;;;5.53;0.88;;;15.30;51.80;;;;;;5023917;28;20225;-62
2022/07/15 09:48:54;;;;;;;1.70;1.00;;;15.30;58.20;;;;;;4993346;28;20225;-63
2022/07/15 09:51:23;;;;;;;2.33;0.75;;;15.30;68.10;;;;;;5023663;28;20226;-63
2022/07/15 09:53:50;;;;;;;1.92;0.60;;;15.70;91.20;;;;;;5005792;28;20225;-63
2022/07/15 09:56:23;;;;;;;1.67;0.68;;;15.70;88.10;;;;;;4997797;28;21257;-63
2022/07/15 09:58:51;;;;;;;2.50;0.60;;;15.90;92.90;;;;;;5022566;28;20344;-63
2022/07/15 10:01:18;;;;;;;2.72;0.80;;;15.90;90.40;;;;;;5014050;28;20213;-63
2022/07/15 10:03:45;;;;;;;1.70;1.33;;;15.80;90.40;;;;;;4997542;28;20237;-63
2022/07/15 10:06:15;;;;;;;1.42;0.75;;;15.90;79.70;;;;;;5006330;28;20214;-63
2022/07/15 10:08:47;;;;;;;1.42;0.63;;;15.90;74.30;;;;;;5011781;28;20297;-63
2022/07/15 10:11:14;;;;;;;2.00;0.73;;;16.10;83.20;;;;;;4999902;28;20226;-63
2022/07/15 10:14:23;;;;;;;1.92;0.95;;;16.10;59.30;;;;;;5019229;28;20228;-64
2022/07/15 10:17:02;;;;;;;1.20;0.60;;;16.30;68.00;;;;;;4999847;28;20221;-64
2022/07/15 10:19:46;;;;;;;1.67;0.80;;;16.30;58.80;;;;;;4991836;28;20719;-64
2022/07/15 10:22:24;;;;;;;6.70;1.15;;;16.10;51.60;;;;;;5016331;28;20197;-64
2022/07/15 10:25:12;;;;;;;2.55;1.50;;;16.40;53.70;;;;;;5006118;28;20241;-64
2022/07/15 10:27:49;;;;;;;1.90;0.70;;;16.40;47.60;;;;;;4995158;28;20784;-64
2022/07/15 10:30:20;;;;;;;1.38;0.88;;;16.30;36.30;;;;;;4999809;28;20255;-64
2022/07/15 10:33:07;;;;;;;1.33;0.68;;;16.70;43.60;;;;;;5001846;28;20221;-64
2022/07/15 10:35:38;;;;;;;0.73;0.73;;;16.50;1.00;;;;;;5066063;22;20717;-65
2022/07/15 10:38:34;;;;;;;0.77;0.57;;;16.60;1.00;;;;;;5034240;28;20219;-64
2022/07/15 10:41:08;;;;;;;0.70;0.70;;;16.50;99.90;;;;;;5033723;28;20223;-64
2022/07/15 10:43:47;;;;;;;1.67;0.70;;;16.50;99.90;;;;;;5028180;28;20220;-64
2022/07/15 10:46:26;;;;;;;1.83;0.68;;;16.70;99.90;;;;;;5027100;28;20231;-64
2022/07/15 10:49:09;;;;;;;1.13;0.80;;;16.70;99.90;;;;;;5037716;28;21271;-63
2022/07/15 10:51:47;;;;;;;1.05;0.57;;;16.80;99.90;;;;;;5042060;28;20236;-64
2022/07/15 10:54:46;;;;;;;0.73;0.60;;;16.80;99.90;;;;;;5038381;28;20977;-64
2022/07/15 10:57:17;;;;;;;1.08;0.52;;;17.10;99.90;;;;;;5045201;28;20223;-64
2022/07/15 10:59:55;;;;;;;2.13;0.65;;;16.70;99.90;;;;;;5019750;28;20327;-63
2022/07/15 11:02:25;;;;;;;2.42;0.88;;;16.70;99.90;;;;;;5037937;28;20220;-64
2022/07/15 11:05:13;;;;;;;3.45;0.90;;;16.70;99.90;;;;;;5044711;28;20690;-63
2022/07/15 11:07:40;;;;;;;0.80;0.65;;;17.00;99.90;;;;;;5053089;28;20808;-64
2022/07/15 11:10:18;;;;;;;1.02;0.73;;;17.10;99.90;;;;;;5047382;28;20216;-64
2022/07/15 11:13:04;;;;;;;2.63;0.65;;;;;;;;;;5043186;28;20281;-64
2022/07/15 11:15:32;;;;;;;0.77;0.68;;;17.40;99.90;;;;;;5033253;28;20621;-63
2022/07/15 11:17:59;;;;;;;0.43;0.43;;;17.50;99.90;;;;;;5051313;28;20222;-64
2022/07/15 11:20:30;;;;;;;2.33;0.82;;;14.00;99.90;;;;;;5022051;28;20307;-64
2022/07/15 11:22:59;;;;;;;2.20;0.65;;;18.40;99.90;;;;;;5048243;28;20231;-64
2022/07/15 11:25:28;;;;;;;3.03;0.80;;;17.30;99.90;;;;;;5049684;28;20944;-65
2022/07/15 11:28:01;;;;;;;0.98;0.50;;;17.60;99.90;;;;;;5044418;28;20743;-64
2022/07/15 11:30:32;;;;;;;0.68;0.57;;;17.70;99.90;;;;;;5021136;28;20266;-66
2022/07/15 11:33:01;;;;;;;1.52;0.82;;;18.00;99.90;;;;;;5051803;28;20232;-64
2022/07/15 11:35:30;;;;;;;2.53;0.70;;;17.80;99.90;;;;;;5018106;28;20707;-65
2022/07/15 11:38:03;;;;;;;2.08;0.70;;;18.00;99.90;;;;;;5061832;28;20646;-64
2022/07/15 11:46:06;;;;;;;0.70;0.50;;;17.70;99.90;;;;;;5059226;28;20226;-65
2022/07/15 11:48:37;;;;;;;1.30;0.77;;;17.40;99.90;;;;;;5040509;28;20262;-64
2022/07/15 11:51:12;;;;;;;2.67;0.90;;;17.30;99.90;;;;;;5046325;28;20232;-65
2022/07/15 11:53:40;;;;;;;2.08;0.75;;;17.40;99.90;;;;;;5004150;28;20215;-65
2022/07/15 11:56:10;;;;;;;1.65;0.55;;;17.40;99.90;;;;;;5045307;28;20200;-65
2022/07/15 11:58:38;;;;;;;2.92;0.90;;;17.50;99.90;;;;;;5055402;28;21946;-64
2022/07/15 12:01:08;;;;;;;1.83;0.50;;;17.50;99.90;;;;;;4989108;28;20216;-65
2022/07/15 12:03:40;;;;;;;2.47;0.50;;;17.50;99.90;;;;;;5038288;28;20219;-62
2022/07/15 12:06:13;;;;;;;1.30;0.73;;;18.00;99.90;;;;;;5040270;28;20293;-63
2022/07/15 12:08:43;;;;;;;1.50;0.77;;;17.90;99.90;;;;;;5040152;28;20214;-63
2022/07/15 12:11:16;;;;;;;1.15;0.90;;;17.70;99.90;;;;;;5034161;28;20282;-64
2022/07/15 12:13:52;;;;;;;0.50;0.40;;;18.00;99.90;;;;;;5034566;28;20204;-63
2022/07/15 12:16:24;;;;;;;2.17;0.82;;;18.10;99.90;;;;;;5010863;28;20776;-63
2022/07/15 12:18:54;;;;;;;0.73;0.45;;;18.00;99.90;;;;;;5038378;28;20204;-63
2022/07/15 12:21:21;;;;;;;7.65;1.02;;;;;;;;;;5035364;28;20209;-63
2022/07/15 12:24:09;;;;;;;2.72;0.85;;;18.50;99.90;;;;;;5021215;28;20226;-63
2022/07/15 12:26:39;;;;;;;3.55;0.70;;;16.80;99.90;;;;;;5047217;28;20215;-63
2022/07/15 12:29:09;;;;;;;2.08;0.98;;;19.30;99.90;;;;;;5034747;28;20220;-63
2022/07/15 12:31:39;;;;;;;0.95;0.80;;;17.10;99.90;;;;;;5011339;28;20228;-63
2022/07/15 12:34:06;;;;;;;0.98;0.65;;;17.10;99.90;;;;;;5034427;28;22011;-63
2022/07/15 12:36:35;;;;;;;2.13;0.70;;;17.10;99.90;;;;;;5034454;28;20797;-63
2022/07/15 12:39:12;;;;;;;2.08;0.75;;;17.10;99.90;;;;;;5041169;28;20205;-62
2022/07/15 12:41:40;;;;;;;1.38;0.60;;;17.10;99.90;;;;;;5051985;28;20211;-63
2022/07/15 12:44:08;;;;;;;4.53;0.80;;;17.30;99.90;;;;;;5021996;28;20850;-63
2022/07/15 12:46:56;;;;;;;1.60;0.47;;;17.30;99.90;;;;;;5022844;28;20297;-63
2022/07/15 12:49:43;;;;;;;1.48;0.75;;;17.30;99.90;;;;;;5024009;28;22882;-63
2022/07/15 12:52:19;;;;;;;1.80;0.70;;;17.30;99.90;;;;;;5040590;28;20722;-63
2022/07/15 12:54:46;;;;;;;2.30;0.50;;;17.20;99.90;;;;;;5033307;28;20208;-63
2022/07/15 12:57:36;;;;;;;3.45;0.70;;;17.10;99.90;;;;;;5054675;28;20242;-63
2022/07/15 13:00:07;;;;;;;1.63;0.65;;;16.70;99.90;;;;;;4994503;28;20204;-63
2022/07/15 13:02:57;;;;;;;2.60;0.80;;;16.60;99.90;;;;;;5039521;28;20832;-63
2022/07/15 13:05:24;;;;;;;1.75;0.60;;;16.70;99.90;;;;;;5019909;28;20861;-64
2022/07/15 13:07:51;;;;;;;2.35;0.90;;;16.70;99.90;;;;;;5035923;28;20213;-62
2022/07/15 13:10:18;;;;;;;1.00;0.52;;;16.70;99.90;;;;;;5035876;28;20229;-64
2022/07/15 13:12:45;;;;;;;2.28;0.85;;;16.60;99.90;;;;;;5045693;28;20888;-64
2022/07/15 13:15:12;;;;;;;3.10;0.70;;;16.50;99.90;;;;;;5042198;28;20846;-63